createdAt,value
2018-07-13T00:00:56.185Z,25.27
2018-07-13T00:02:05.622Z,25.24
2018-07-13T00:03:15.026Z,25.33
2018-07-13T00:04:24.212Z,25.3
2018-07-13T00:05:33.374Z,25.28
2018-07-13T00:06:43.098Z,25.3
2018-07-13T00:07:51.984Z,25.36
2018-07-13T00:09:01.947Z,25.39
2018-07-13T00:10:11.618Z,25.25
2018-07-13T00:11:21.290Z,25.38
2018-07-13T00:12:30.715Z,25.38
2018-07-13T00:13:40.388Z,25.3
2018-07-13T00:14:49.800Z,25.33
2018-07-13T00:15:59.205Z,25.36
2018-07-13T00:17:08.345Z,25.28
2018-07-13T00:18:17.498Z,25.33
2018-07-13T00:19:26.399Z,25.3
2018-07-13T00:20:35.816Z,25.3
2018-07-13T00:21:44.983Z,25.36
2018-07-13T00:22:53.868Z,25.28
2018-07-13T00:24:02.774Z,25.3
2018-07-13T00:25:12.193Z,25.27
2018-07-13T00:26:21.602Z,25.33
2018-07-13T00:27:31.276Z,25.25
2018-07-13T00:28:40.938Z,25.25
2018-07-13T00:29:50.387Z,25.35
2018-07-13T00:30:59.537Z,25.3
2018-07-13T00:32:08.689Z,25.28
2018-07-13T00:33:17.838Z,25.3
2018-07-13T00:34:27.262Z,25.3
2018-07-13T00:35:36.940Z,25.3
2018-07-13T00:36:46.121Z,25.3
2018-07-13T00:37:55.531Z,25.28
2018-07-13T00:39:05.198Z,25.3
2018-07-13T00:40:14.347Z,25.27
2018-07-13T00:41:24.024Z,25.32
2018-07-13T00:42:33.432Z,25.24
2018-07-13T00:43:42.836Z,25.3
2018-07-13T00:44:52.003Z,25.25
2018-07-13T00:46:01.181Z,25.3
2018-07-13T00:47:10.077Z,25.3
2018-07-13T00:48:19.527Z,25.3
2018-07-13T00:49:29.175Z,25.32
2018-07-13T00:50:38.838Z,25.27
2018-07-13T00:51:48.009Z,25.28
2018-07-13T00:52:57.165Z,25.27
2018-07-13T00:54:06.612Z,25.27
2018-07-13T00:55:16.278Z,25.25
2018-07-13T00:56:25.698Z,25.25
2018-07-13T00:57:34.879Z,25.25
2018-07-13T00:58:44.044Z,25.28
2018-07-13T00:59:53.706Z,25.28
2018-07-13T01:01:03.112Z,25.3
2018-07-13T01:02:12.261Z,25.25
2018-07-13T01:03:22.186Z,25.28
2018-07-13T01:04:31.358Z,25.23
2018-07-13T01:05:40.247Z,25.3
2018-07-13T01:06:49.913Z,25.24
2018-07-13T01:07:59.318Z,25.27
2018-07-13T01:09:08.263Z,25.25
2018-07-13T01:10:17.687Z,25.25
2018-07-13T01:11:26.847Z,25.21
2018-07-13T01:12:35.499Z,25.21
2018-07-13T01:13:45.185Z,25.21
2018-07-13T01:14:54.350Z,25.21
2018-07-13T01:16:03.760Z,25.23
2018-07-13T01:17:12.662Z,25.3
2018-07-13T01:18:22.093Z,25.3
2018-07-13T01:19:31.255Z,25.25
2018-07-13T01:20:40.665Z,25.24
2018-07-13T01:21:50.075Z,25.3
2018-07-13T01:22:59.228Z,25.27
2018-07-13T01:24:08.720Z,25.25
2018-07-13T01:25:17.873Z,25.3
2018-07-13T01:26:27.043Z,25.23
2018-07-13T01:27:36.216Z,25.3
2018-07-13T01:28:45.106Z,25.25
2018-07-13T01:29:54.020Z,25.21
2018-07-13T01:31:03.436Z,25.3
2018-07-13T01:32:12.585Z,25.25
2018-07-13T01:33:21.741Z,25.27
2018-07-13T01:34:31.174Z,25.28
2018-07-13T01:35:40.326Z,25.18
2018-07-13T01:36:50.070Z,25.27
2018-07-13T01:37:58.889Z,25.21
2018-07-13T01:39:08.817Z,25.32
2018-07-13T01:40:18.487Z,25.27
2018-07-13T01:41:28.148Z,25.23
2018-07-13T01:42:37.565Z,25.23
2018-07-13T01:43:46.712Z,25.18
2018-07-13T01:44:56.375Z,25.21
2018-07-13T01:46:06.063Z,25.21
2018-07-13T01:47:15.221Z,25.32
2018-07-13T01:48:24.618Z,25.23
2018-07-13T01:49:33.777Z,25.24
2018-07-13T01:50:43.182Z,25.24
2018-07-13T01:51:52.855Z,25.23
2018-07-13T01:53:02.272Z,25.18
2018-07-13T01:54:11.431Z,25.2
2018-07-13T01:55:20.579Z,25.18
2018-07-13T01:56:29.999Z,25.25
2018-07-13T01:57:39.679Z,25.2
2018-07-13T01:58:49.087Z,25.2
2018-07-13T01:59:58.753Z,25.21
2018-07-13T02:01:08.158Z,25.23
2018-07-13T02:02:17.581Z,25.18
2018-07-13T02:03:26.739Z,25.15
2018-07-13T02:04:35.900Z,25.21
2018-07-13T02:05:45.315Z,25.17
2018-07-13T02:06:54.477Z,25.18
2018-07-13T02:08:03.110Z,25.15
2018-07-13T02:09:12.514Z,25.23
2018-07-13T02:10:21.942Z,25.18
2018-07-13T02:11:31.353Z,25.17
2018-07-13T02:12:41.026Z,25.15
2018-07-13T02:13:50.714Z,25.05
2018-07-13T02:14:59.624Z,25.18
2018-07-13T02:16:08.777Z,25.2
2018-07-13T02:17:18.446Z,25.13
2018-07-13T02:18:28.110Z,25.2
2018-07-13T02:19:37.553Z,25.18
2018-07-13T02:20:47.221Z,25.14
2018-07-13T02:21:57.247Z,25.08
2018-07-13T02:23:06.152Z,25.17
2018-07-13T02:24:16.092Z,25.13
2018-07-13T02:25:25.492Z,25.17
2018-07-13T02:26:35.163Z,25.08
2018-07-13T02:27:44.321Z,25.08
2018-07-13T02:28:53.731Z,25.08
2018-07-13T02:30:03.390Z,25.1
2018-07-13T02:31:12.794Z,25.06
2018-07-13T02:32:22.219Z,25.09
2018-07-13T02:33:31.110Z,25.03
2018-07-13T02:34:40.279Z,25.14
2018-07-13T02:35:50.223Z,25.05
2018-07-13T02:37:00.168Z,25.13
2018-07-13T02:38:09.842Z,25.05
2018-07-13T02:39:19.783Z,25.06
2018-07-13T02:40:28.701Z,25.03
2018-07-13T02:41:38.648Z,25.09
2018-07-13T02:42:48.322Z,25.08
2018-07-13T02:43:57.727Z,25.09
2018-07-13T02:45:06.888Z,25.08
2018-07-13T02:46:16.841Z,25
2018-07-13T02:47:26.010Z,24.98
2018-07-13T02:48:35.962Z,25.08
2018-07-13T02:49:45.121Z,25.09
2018-07-13T02:50:54.810Z,25.09
2018-07-13T02:52:04.231Z,24.98
2018-07-13T02:53:13.411Z,25.02
2018-07-13T02:54:22.832Z,25.03
2018-07-13T02:55:32.028Z,25.03
2018-07-13T02:56:41.698Z,24.98
2018-07-13T02:57:51.634Z,25.06
2018-07-13T02:59:00.800Z,24.95
2018-07-13T03:00:10.488Z,24.99
2018-07-13T03:01:20.169Z,25.05
2018-07-13T03:02:30.102Z,25.09
2018-07-13T03:03:40.019Z,25.08
2018-07-13T03:04:49.447Z,25.06
2018-07-13T03:05:58.926Z,24.95
2018-07-13T03:07:08.339Z,25.06
2018-07-13T03:08:17.756Z,25.1
2018-07-13T03:09:26.651Z,25.03
2018-07-13T03:10:36.611Z,24.98
2018-07-13T03:11:46.284Z,24.96
2018-07-13T03:12:55.957Z,24.96
2018-07-13T03:14:05.396Z,24.96
2018-07-13T03:15:15.239Z,24.95
2018-07-13T03:16:25.203Z,24.91
2018-07-13T03:17:34.884Z,24.96
2018-07-13T03:18:44.036Z,24.93
2018-07-13T03:19:53.695Z,25.03
2018-07-13T03:21:02.607Z,24.95
2018-07-13T03:22:12.081Z,24.96
2018-07-13T03:23:21.483Z,25.06
2018-07-13T03:24:30.662Z,25
2018-07-13T03:25:40.588Z,24.98
2018-07-13T03:26:50.255Z,25.02
2018-07-13T03:27:59.662Z,25.02
2018-07-13T03:29:09.064Z,25.06
2018-07-13T03:30:18.474Z,24.93
2018-07-13T03:31:28.129Z,25.02
2018-07-13T03:32:37.801Z,24.99
2018-07-13T03:33:47.463Z,25.02
2018-07-13T03:34:56.616Z,24.95
2018-07-13T03:36:05.811Z,24.95
2018-07-13T03:37:14.934Z,25.03
2018-07-13T03:38:24.511Z,25
2018-07-13T03:39:33.866Z,24.98
2018-07-13T03:40:43.031Z,25
2018-07-13T03:41:51.923Z,25.02
2018-07-13T03:43:00.822Z,24.96
2018-07-13T03:44:10.857Z,24.98
2018-07-13T03:45:20.287Z,24.93
2018-07-13T03:46:29.701Z,25
2018-07-13T03:47:38.865Z,25
2018-07-13T03:48:48.596Z,24.93
2018-07-13T03:49:57.995Z,24.91
2018-07-13T03:51:07.427Z,24.95
2018-07-13T03:52:16.844Z,24.91
2018-07-13T03:53:26.255Z,24.95
2018-07-13T03:54:35.682Z,24.98
2018-07-13T03:55:45.117Z,24.98
2018-07-13T03:56:54.783Z,24.96
2018-07-13T03:58:04.214Z,24.99
2018-07-13T03:59:13.106Z,24.99
2018-07-13T04:00:22.003Z,24.95
2018-07-13T04:01:31.805Z,24.95
2018-07-13T04:02:41.217Z,24.96
2018-07-13T04:03:50.700Z,24.93
2018-07-13T04:05:00.110Z,24.95
2018-07-13T04:06:09.518Z,24.9
2018-07-13T04:07:19.171Z,24.9
2018-07-13T04:08:28.853Z,24.84
2018-07-13T04:09:37.745Z,24.93
2018-07-13T04:10:47.163Z,24.87
2018-07-13T04:11:56.066Z,24.9
2018-07-13T04:13:05.487Z,24.9
2018-07-13T04:14:14.898Z,24.9
2018-07-13T04:15:24.065Z,24.9
2018-07-13T04:16:33.726Z,24.96
2018-07-13T04:17:42.875Z,24.9
2018-07-13T04:18:52.279Z,24.91
2018-07-13T04:20:01.689Z,24.91
2018-07-13T04:21:11.350Z,24.96
2018-07-13T04:22:20.002Z,24.91
2018-07-13T04:23:29.663Z,24.95
2018-07-13T04:24:38.830Z,24.91
2018-07-13T04:25:47.980Z,24.91
2018-07-13T04:26:57.128Z,24.93
2018-07-13T04:28:07.064Z,24.91
2018-07-13T04:29:16.212Z,24.91
2018-07-13T04:30:25.360Z,24.96
2018-07-13T04:31:35.019Z,24.87
2018-07-13T04:32:44.446Z,24.9
2018-07-13T04:33:54.099Z,24.93
2018-07-13T04:35:03.506Z,24.95
2018-07-13T04:36:12.910Z,24.88
2018-07-13T04:37:22.057Z,24.9
2018-07-13T04:38:31.483Z,24.95
2018-07-13T04:39:41.138Z,24.91
2018-07-13T04:40:50.372Z,24.93
2018-07-13T04:42:00.197Z,24.95
2018-07-13T04:43:09.395Z,24.96
2018-07-13T04:44:18.860Z,24.96
2018-07-13T04:45:28.272Z,24.99
2018-07-13T04:46:37.678Z,24.96
2018-07-13T04:47:47.358Z,24.93
2018-07-13T04:48:56.764Z,24.93
2018-07-13T04:50:06.211Z,24.91
2018-07-13T04:51:15.425Z,24.91
2018-07-13T04:52:24.847Z,24.91
2018-07-13T04:53:33.737Z,24.91
2018-07-13T04:54:43.145Z,24.93
2018-07-13T04:55:52.821Z,24.91
2018-07-13T04:57:01.979Z,24.88
2018-07-13T04:58:11.155Z,24.91
2018-07-13T04:59:20.832Z,24.83
2018-07-13T05:00:30.538Z,24.93
2018-07-13T05:01:40.011Z,24.95
2018-07-13T05:02:49.520Z,24.9
2018-07-13T05:03:59.178Z,24.96
2018-07-13T05:05:08.331Z,24.9
2018-07-13T05:06:17.947Z,24.96
2018-07-13T05:07:28.060Z,24.96
2018-07-13T05:08:37.477Z,24.98
2018-07-13T05:09:47.178Z,25.09
2018-07-13T05:10:56.074Z,24.96
2018-07-13T05:12:04.981Z,25
2018-07-13T05:13:14.123Z,25.03
2018-07-13T05:14:23.523Z,24.98
2018-07-13T05:15:33.169Z,25
2018-07-13T05:16:42.327Z,25.03
2018-07-13T05:17:51.989Z,25.06
2018-07-13T05:19:01.385Z,25.09
2018-07-13T05:20:10.549Z,25.06
2018-07-13T05:21:20.374Z,24.98
2018-07-13T05:22:30.000Z,25.1
2018-07-13T05:23:39.685Z,25
2018-07-13T05:24:48.832Z,25.05
2018-07-13T05:25:58.251Z,25.1
2018-07-13T05:27:08.093Z,25.09
2018-07-13T05:28:18.010Z,25.1
2018-07-13T05:29:27.689Z,25.08
2018-07-13T05:30:36.958Z,25.05
2018-07-13T05:31:46.930Z,25.03
2018-07-13T05:32:56.328Z,25.02
2018-07-13T05:34:05.988Z,25.06
2018-07-13T05:35:15.452Z,25.06
2018-07-13T05:36:24.638Z,25.03
2018-07-13T05:37:34.387Z,25.06
2018-07-13T05:38:43.813Z,25.05
2018-07-13T05:39:53.220Z,25.08
2018-07-13T05:41:03.160Z,25.08
2018-07-13T05:42:12.320Z,25
2018-07-13T05:43:21.759Z,25.03
2018-07-13T05:44:30.943Z,25.08
2018-07-13T05:45:40.085Z,25.05
2018-07-13T05:46:49.798Z,25.06
2018-07-13T05:47:59.214Z,25.09
2018-07-13T05:49:08.882Z,25.06
2018-07-13T05:50:17.791Z,25.06
2018-07-13T05:51:27.474Z,25.09
2018-07-13T05:52:36.647Z,25.1
2018-07-13T05:53:46.330Z,25.03
2018-07-13T05:54:56.010Z,25.03
2018-07-13T05:56:05.209Z,25.13
2018-07-13T05:57:14.421Z,25.06
2018-07-13T05:58:24.079Z,25.05
2018-07-13T05:59:33.523Z,25.05
2018-07-13T06:00:43.213Z,25.06
2018-07-13T06:01:52.617Z,25.1
2018-07-13T06:03:02.012Z,25.14
2018-07-13T06:04:11.178Z,25.13
2018-07-13T06:05:20.333Z,25.1
2018-07-13T06:06:29.762Z,25.1
2018-07-13T06:07:39.436Z,25.1
2018-07-13T06:08:48.656Z,25.13
2018-07-13T06:09:57.974Z,25.08
2018-07-13T06:11:07.153Z,25.17
2018-07-13T06:12:16.331Z,25.14
2018-07-13T06:13:25.507Z,25.13
2018-07-13T06:14:34.951Z,25.18
2018-07-13T06:15:44.160Z,25.13
2018-07-13T06:16:53.597Z,25.17
2018-07-13T06:18:03.020Z,25.13
2018-07-13T06:19:12.421Z,25.14
2018-07-13T06:20:22.181Z,25.15
2018-07-13T06:21:31.354Z,25.18
2018-07-13T06:22:40.783Z,25.2
2018-07-13T06:23:50.239Z,25.17
2018-07-13T06:24:59.397Z,25.17
2018-07-13T06:26:08.324Z,25.17
2018-07-13T06:27:17.511Z,25.17
2018-07-13T06:28:27.462Z,25.15
2018-07-13T06:29:36.652Z,25.18
2018-07-13T06:30:45.853Z,25.18
2018-07-13T06:31:55.382Z,25.17
2018-07-13T06:33:04.885Z,25.15
2018-07-13T06:34:13.847Z,25.17
2018-07-13T06:35:23.770Z,25.21
2018-07-13T06:36:33.192Z,25.23
2018-07-13T06:37:43.116Z,25.25
2018-07-13T06:38:52.274Z,25.2
2018-07-13T06:40:01.492Z,25.24
2018-07-13T06:41:10.664Z,25.23
2018-07-13T06:42:20.342Z,25.21
2018-07-13T06:43:29.600Z,25.2
2018-07-13T06:44:39.078Z,25.2
2018-07-13T06:45:49.266Z,25.24
2018-07-13T06:46:58.937Z,25.18
2018-07-13T06:48:08.359Z,25.21
2018-07-13T06:49:17.047Z,25.18
2018-07-13T06:50:26.642Z,25.25
2018-07-13T06:51:36.666Z,25.23
2018-07-13T06:52:46.660Z,25.17
2018-07-13T06:53:56.106Z,25.24
2018-07-13T06:55:05.787Z,25.14
2018-07-13T06:56:15.465Z,25.21
2018-07-13T06:57:25.149Z,25.23
2018-07-13T06:58:34.646Z,25.24
2018-07-13T06:59:43.859Z,25.3
2018-07-13T07:00:53.038Z,25.3
2018-07-13T07:02:02.972Z,25.23
2018-07-13T07:03:12.651Z,25.27
2018-07-13T07:04:21.807Z,25.21
2018-07-13T07:05:31.218Z,25.23
2018-07-13T07:06:40.384Z,25.17
2018-07-13T07:07:50.054Z,25.25
2018-07-13T07:08:59.220Z,25.28
2018-07-13T07:10:08.637Z,25.24
2018-07-13T07:11:18.065Z,25.23
2018-07-13T07:12:27.235Z,25.24
2018-07-13T07:13:36.406Z,25.24
2018-07-13T07:14:45.836Z,25.25
2018-07-13T07:15:55.263Z,25.23
2018-07-13T07:17:04.415Z,25.24
2018-07-13T07:18:13.863Z,25.28
2018-07-13T07:19:23.572Z,25.23
2018-07-13T07:20:32.992Z,25.27
2018-07-13T07:21:42.151Z,25.24
2018-07-13T07:22:51.576Z,25.28
2018-07-13T07:24:01.515Z,25.3
2018-07-13T07:25:10.429Z,25.24
2018-07-13T07:26:20.099Z,25.18
2018-07-13T07:27:29.540Z,25.32
2018-07-13T07:28:38.966Z,25.25
2018-07-13T07:29:48.386Z,25.25
2018-07-13T07:30:57.810Z,25.23
2018-07-13T07:32:07.504Z,25.24
2018-07-13T07:33:16.966Z,25.27
2018-07-13T07:34:26.399Z,25.28
2018-07-13T07:35:35.828Z,25.23
2018-07-13T07:36:45.322Z,25.28
2018-07-13T07:37:54.231Z,25.21
2018-07-13T07:39:03.663Z,25.25
2018-07-13T07:40:13.089Z,25.21
2018-07-13T07:41:22.001Z,25.3
2018-07-13T07:42:31.181Z,25.35
2018-07-13T07:43:41.125Z,25.3
2018-07-13T07:44:50.532Z,25.25
2018-07-13T07:46:00.475Z,25.36
2018-07-13T07:47:09.894Z,25.25
2018-07-13T07:48:19.581Z,25.27
2018-07-13T07:49:28.750Z,25.23
2018-07-13T07:50:38.443Z,25.25
2018-07-13T07:51:48.490Z,25.27
2018-07-13T07:52:58.451Z,25.24
2018-07-13T07:54:07.614Z,25.3
2018-07-13T07:55:16.505Z,25.27
2018-07-13T07:56:25.677Z,25.33
2018-07-13T07:57:35.764Z,25.38
2018-07-13T07:58:45.774Z,25.27
2018-07-13T07:59:55.192Z,25.24
2018-07-13T08:01:04.629Z,25.3
2018-07-13T08:02:14.578Z,25.33
2018-07-13T08:03:24.008Z,25.24
2018-07-13T08:04:33.447Z,25.27
2018-07-13T08:05:42.716Z,25.3
2018-07-13T08:06:53.465Z,25.3
2018-07-13T08:08:05.201Z,25.28
2018-07-13T08:09:14.376Z,25.28
2018-07-13T08:10:23.824Z,25.3
2018-07-13T08:11:33.251Z,25.3
2018-07-13T08:12:42.679Z,25.24
2018-07-13T08:13:53.356Z,25.33
2018-07-13T08:15:03.544Z,25.35
2018-07-13T08:16:12.724Z,25.3
2018-07-13T08:17:22.150Z,25.28
2018-07-13T08:18:31.661Z,25.3
2018-07-13T08:19:41.098Z,25.3
2018-07-13T08:20:50.267Z,25.33
2018-07-13T08:21:59.436Z,25.32
2018-07-13T08:23:08.854Z,25.3
2018-07-13T08:24:18.537Z,25.3
2018-07-13T08:25:27.953Z,25.35
2018-07-13T08:26:36.930Z,25.28
2018-07-13T08:27:46.327Z,25.35
2018-07-13T08:28:56.018Z,25.27
2018-07-13T08:30:05.180Z,25.36
2018-07-13T08:31:15.277Z,25.33
2018-07-13T08:32:24.972Z,25.28
2018-07-13T08:33:33.887Z,25.3
2018-07-13T08:34:43.331Z,25.36
2018-07-13T08:35:52.502Z,25.36
2018-07-13T08:37:02.198Z,25.28
2018-07-13T08:38:11.375Z,25.28
2018-07-13T08:39:20.563Z,25.33
2018-07-13T08:40:29.472Z,25.33
2018-07-13T08:41:38.634Z,25.32
2018-07-13T08:42:47.796Z,25.35
2018-07-13T08:43:57.569Z,25.3
2018-07-13T08:45:07.422Z,25.32
2018-07-13T08:46:16.855Z,25.33
2018-07-13T08:47:26.521Z,25.23
2018-07-13T08:48:35.960Z,25.36
2018-07-13T08:49:45.385Z,25.32
2018-07-13T08:50:55.489Z,25.32
2018-07-13T08:52:04.419Z,25.3
2018-07-13T08:53:14.113Z,25.3
2018-07-13T08:54:23.787Z,25.35
2018-07-13T08:55:32.941Z,25.28
2018-07-13T08:56:41.835Z,25.28
2018-07-13T08:57:51.510Z,25.38
2018-07-13T08:59:00.937Z,25.32
2018-07-13T09:00:10.109Z,25.36
2018-07-13T09:01:19.776Z,25.33
2018-07-13T09:02:29.455Z,25.35
2018-07-13T09:03:38.621Z,25.3
2018-07-13T09:04:48.189Z,25.3
2018-07-13T09:05:58.059Z,25.3
2018-07-13T09:07:07.038Z,25.27
2018-07-13T09:08:16.466Z,25.3
2018-07-13T09:09:25.634Z,25.33
2018-07-13T09:10:35.063Z,25.3
2018-07-13T09:11:45.094Z,25.3
2018-07-13T09:12:55.347Z,25.28
2018-07-13T09:14:04.912Z,25.36
2018-07-13T09:15:14.076Z,25.35
2018-07-13T09:16:23.511Z,25.28
2018-07-13T09:17:32.931Z,25.33
2018-07-13T09:18:42.083Z,25.33
2018-07-13T09:19:51.823Z,25.3
2018-07-13T09:21:00.733Z,25.33
2018-07-13T09:22:10.426Z,25.33
2018-07-13T09:23:19.863Z,25.33
2018-07-13T09:24:29.531Z,25.33
2018-07-13T09:25:38.947Z,25.36
2018-07-13T09:26:48.646Z,25.36
2018-07-13T09:27:58.067Z,25.36
2018-07-13T09:29:07.230Z,25.39
2018-07-13T09:30:16.404Z,25.36
2018-07-13T09:31:26.217Z,25.35
2018-07-13T09:32:35.642Z,25.33
2018-07-13T09:33:45.079Z,25.33
2018-07-13T09:34:54.788Z,25.35
2018-07-13T09:36:04.212Z,25.33
2018-07-13T09:37:13.394Z,25.32
2018-07-13T09:38:22.957Z,25.35
2018-07-13T09:39:32.783Z,25.33
2018-07-13T09:40:42.223Z,25.28
2018-07-13T09:41:51.413Z,25.36
2018-07-13T09:43:00.848Z,25.38
2018-07-13T09:44:10.278Z,25.33
2018-07-13T09:45:19.447Z,25.36
2018-07-13T09:46:28.902Z,25.28
2018-07-13T09:47:38.219Z,25.33
2018-07-13T09:48:47.653Z,25.28
2018-07-13T09:49:57.352Z,25.35
2018-07-13T09:51:07.053Z,25.36
2018-07-13T09:52:16.469Z,25.4
2018-07-13T09:53:26.199Z,25.38
2018-07-13T09:54:35.912Z,25.28
2018-07-13T09:55:45.075Z,25.36
2018-07-13T09:56:55.077Z,25.39
2018-07-13T09:58:04.770Z,25.39
2018-07-13T09:59:14.461Z,25.39
2018-07-13T10:00:23.389Z,25.42
2018-07-13T10:01:32.845Z,25.43
2018-07-13T10:02:42.541Z,25.38
2018-07-13T10:03:51.960Z,25.32
2018-07-13T10:05:01.150Z,25.39
2018-07-13T10:06:10.578Z,25.4
2018-07-13T10:07:19.751Z,25.42
2018-07-13T10:08:29.437Z,25.36
2018-07-13T10:09:39.118Z,25.3
2018-07-13T10:10:48.526Z,25.43
2018-07-13T10:11:57.953Z,25.39
2018-07-13T10:13:07.381Z,25.42
2018-07-13T10:14:16.804Z,25.4
2018-07-13T10:15:26.237Z,25.38
2018-07-13T10:16:35.966Z,25.38
2018-07-13T10:17:45.119Z,25.4
2018-07-13T10:18:54.824Z,25.33
2018-07-13T10:20:04.244Z,25.4
2018-07-13T10:21:13.914Z,25.4
2018-07-13T10:22:23.345Z,25.38
2018-07-13T10:23:32.766Z,25.43
2018-07-13T10:24:42.451Z,25.39
2018-07-13T10:25:51.864Z,25.38
2018-07-13T10:27:01.032Z,25.35
2018-07-13T10:28:09.944Z,25.4
2018-07-13T10:29:19.620Z,25.45
2018-07-13T10:30:29.692Z,25.45
2018-07-13T10:31:39.136Z,25.42
2018-07-13T10:32:48.833Z,25.39
2018-07-13T10:33:58.535Z,25.36
2018-07-13T10:35:07.948Z,25.42
2018-07-13T10:36:17.384Z,25.39
2018-07-13T10:37:26.817Z,25.35
2018-07-13T10:38:36.489Z,25.39
2018-07-13T10:39:45.916Z,25.35
2018-07-13T10:40:55.135Z,25.43
2018-07-13T10:42:04.811Z,25.35
2018-07-13T10:43:14.521Z,25.36
2018-07-13T10:44:24.206Z,25.36
2018-07-13T10:45:33.633Z,25.35
2018-07-13T10:46:43.051Z,25.38
2018-07-13T10:47:53.327Z,25.39
2018-07-13T10:49:02.747Z,25.36
2018-07-13T10:50:11.726Z,25.43
2018-07-13T10:51:21.452Z,25.33
2018-07-13T10:52:31.249Z,25.43
2018-07-13T10:53:40.717Z,25.39
2018-07-13T10:54:50.417Z,25.39
2018-07-13T10:56:00.123Z,25.38
2018-07-13T10:57:10.128Z,25.39
2018-07-13T10:58:19.833Z,25.36
2018-07-13T10:59:28.737Z,25.42
2018-07-13T11:00:37.934Z,25.38
2018-07-13T11:01:47.343Z,25.38
2018-07-13T11:02:56.922Z,25.35
2018-07-13T11:04:05.980Z,25.39
2018-07-13T11:05:15.681Z,25.36
2018-07-13T11:06:25.108Z,25.38
2018-07-13T11:07:34.534Z,25.38
2018-07-13T11:08:43.963Z,25.38
2018-07-13T11:09:53.133Z,25.38
2018-07-13T11:11:02.545Z,25.39
2018-07-13T11:12:11.721Z,25.39
2018-07-13T11:13:20.878Z,25.38
2018-07-13T11:14:30.032Z,25.33
2018-07-13T11:15:39.447Z,25.38
2018-07-13T11:16:48.613Z,25.36
2018-07-13T11:17:58.043Z,25.4
2018-07-13T11:19:07.727Z,25.36
2018-07-13T11:20:16.897Z,25.36
2018-07-13T11:21:26.588Z,25.38
2018-07-13T11:22:36.571Z,25.39
2018-07-13T11:23:45.984Z,25.39
2018-07-13T11:24:55.680Z,25.32
2018-07-13T11:26:04.863Z,25.39
2018-07-13T11:27:14.764Z,25.4
2018-07-13T11:28:24.171Z,25.36
2018-07-13T11:29:33.854Z,25.43
2018-07-13T11:30:43.090Z,25.39
2018-07-13T11:31:52.258Z,25.32
2018-07-13T11:33:01.675Z,25.38
2018-07-13T11:34:11.093Z,25.36
2018-07-13T11:35:20.505Z,25.38
2018-07-13T11:36:30.194Z,25.42
2018-07-13T11:37:39.375Z,25.4
2018-07-13T11:38:49.275Z,25.36
2018-07-13T11:39:58.158Z,25.4
2018-07-13T11:41:07.590Z,25.42
2018-07-13T11:42:17.255Z,25.38
2018-07-13T11:43:26.925Z,25.35
2018-07-13T11:44:36.633Z,25.35
2018-07-13T11:45:46.050Z,25.42
2018-07-13T11:46:55.467Z,25.4
2018-07-13T11:48:04.898Z,25.43
2018-07-13T11:49:14.741Z,25.4
2018-07-13T11:50:24.451Z,25.36
2018-07-13T11:51:33.862Z,25.38
2018-07-13T11:52:43.548Z,25.38
2018-07-13T11:53:53.279Z,25.4
2018-07-13T11:55:03.232Z,25.36
2018-07-13T11:56:12.912Z,25.51
2018-07-13T11:57:22.848Z,25.35
2018-07-13T11:58:32.023Z,25.5
2018-07-13T11:59:41.219Z,25.35
2018-07-13T12:00:50.890Z,25.43
2018-07-13T12:02:00.578Z,25.35
2018-07-13T12:03:10.273Z,25.43
2018-07-13T12:04:19.694Z,25.45
2018-07-13T12:05:29.370Z,25.43
2018-07-13T12:06:38.788Z,25.4
2018-07-13T12:07:49.274Z,25.39
2018-07-13T12:08:59.230Z,25.45
2018-07-13T12:10:08.913Z,25.38
2018-07-13T12:11:18.338Z,25.46
2018-07-13T12:12:27.252Z,25.38
2018-07-13T12:13:36.960Z,25.38
2018-07-13T12:14:45.873Z,25.36
2018-07-13T12:15:55.290Z,25.52
2018-07-13T12:17:04.467Z,25.5
2018-07-13T12:18:13.906Z,25.5
2018-07-13T12:19:23.335Z,25.54
2018-07-13T12:20:32.767Z,25.47
2018-07-13T12:21:42.191Z,25.39
2018-07-13T12:22:51.591Z,25.47
2018-07-13T12:24:00.843Z,25.46
2018-07-13T12:25:09.759Z,25.5
2018-07-13T12:26:19.431Z,25.46
2018-07-13T12:27:28.851Z,25.4
2018-07-13T12:28:38.713Z,25.46
2018-07-13T12:29:47.650Z,25.45
2018-07-13T12:30:57.069Z,25.47
2018-07-13T12:32:06.225Z,25.5
2018-07-13T12:33:15.396Z,25.47
2018-07-13T12:34:24.839Z,25.52
2018-07-13T12:35:34.514Z,25.45
2018-07-13T12:36:43.419Z,25.51
2018-07-13T12:37:52.867Z,25.46
2018-07-13T12:39:02.893Z,25.5
2018-07-13T12:40:12.406Z,25.47
2018-07-13T12:41:21.821Z,25.46
2018-07-13T12:42:31.256Z,25.5
2018-07-13T12:43:40.398Z,25.52
2018-07-13T12:44:49.568Z,25.5
2018-07-13T12:45:59.338Z,25.55
2018-07-13T12:47:08.866Z,25.46
2018-07-13T12:48:18.278Z,25.46
2018-07-13T12:49:27.728Z,25.52
2018-07-13T12:50:36.634Z,25.45
2018-07-13T12:51:46.563Z,25.52
2018-07-13T12:52:55.977Z,25.45
2018-07-13T12:54:05.823Z,25.52
2018-07-13T12:55:15.009Z,25.51
2018-07-13T12:56:24.158Z,25.55
2018-07-13T12:57:33.578Z,25.47
2018-07-13T12:58:42.988Z,25.45
2018-07-13T12:59:52.411Z,25.5
2018-07-13T13:01:02.085Z,25.46
2018-07-13T13:02:11.494Z,25.52
2018-07-13T13:03:20.912Z,25.46
2018-07-13T13:04:30.080Z,25.57
2018-07-13T13:05:40.043Z,25.57
2018-07-13T13:06:50.220Z,25.55
2018-07-13T13:07:59.897Z,25.46
2018-07-13T13:09:09.852Z,25.52
2018-07-13T13:10:18.777Z,25.55
2018-07-13T13:11:27.934Z,25.57
2018-07-13T13:12:36.830Z,25.46
2018-07-13T13:13:45.978Z,25.54
2018-07-13T13:14:55.454Z,25.45
2018-07-13T13:16:04.905Z,25.52
2018-07-13T13:17:14.321Z,25.46
2018-07-13T13:18:24.015Z,25.46
2018-07-13T13:19:32.917Z,25.46
2018-07-13T13:20:42.077Z,25.51
2018-07-13T13:21:51.976Z,25.51
2018-07-13T13:23:02.289Z,25.57
2018-07-13T13:24:11.719Z,25.51
2018-07-13T13:25:20.893Z,25.52
2018-07-13T13:26:30.578Z,25.54
2018-07-13T13:27:40.250Z,25.61
2018-07-13T13:28:49.672Z,25.57
2018-07-13T13:29:59.085Z,25.6
2018-07-13T13:31:08.764Z,25.57
2018-07-13T13:32:18.239Z,25.61
2018-07-13T13:33:27.422Z,25.55
2018-07-13T13:34:36.894Z,25.55
2018-07-13T13:35:46.214Z,25.54
2018-07-13T13:36:55.912Z,25.55
2018-07-13T13:38:05.350Z,25.52
2018-07-13T13:39:14.785Z,25.57
2018-07-13T13:40:23.949Z,25.54
2018-07-13T13:41:33.634Z,25.6
2018-07-13T13:42:43.328Z,25.62
2018-07-13T13:43:53.017Z,25.55
2018-07-13T13:45:02.207Z,25.64
2018-07-13T13:46:11.373Z,25.67
2018-07-13T13:47:20.544Z,25.65
2018-07-13T13:48:30.205Z,25.65
2018-07-13T13:49:39.978Z,25.64
2018-07-13T13:50:49.887Z,25.65
2018-07-13T13:51:59.579Z,25.67
2018-07-13T13:53:08.745Z,25.65
2018-07-13T13:54:18.181Z,25.65
2018-07-13T13:55:27.618Z,25.64
2018-07-13T13:56:36.526Z,25.64
2018-07-13T13:57:45.939Z,25.65
2018-07-13T13:58:55.669Z,25.61
2018-07-13T14:00:05.330Z,25.62
2018-07-13T14:01:14.764Z,25.67
2018-07-13T14:02:24.186Z,25.65
2018-07-13T14:03:33.874Z,25.65
2018-07-13T14:04:43.310Z,25.61
2018-07-13T14:05:52.350Z,25.69
2018-07-13T14:07:02.079Z,25.73
2018-07-13T14:08:11.000Z,25.7
2018-07-13T14:09:21.203Z,25.72
2018-07-13T14:10:31.631Z,25.7
2018-07-13T14:11:41.372Z,25.7
2018-07-13T14:12:50.836Z,25.7
2018-07-13T14:13:59.731Z,25.7
2018-07-13T14:15:09.408Z,25.73
2018-07-13T14:16:18.324Z,25.72
2018-07-13T14:17:27.484Z,25.72
2018-07-13T14:18:36.652Z,25.73
2018-07-13T14:19:46.075Z,25.79
2018-07-13T14:20:55.739Z,25.75
2018-07-13T14:22:05.418Z,25.77
2018-07-13T14:23:14.860Z,25.76
2018-07-13T14:24:24.270Z,25.75
2018-07-13T14:25:33.176Z,25.8
2018-07-13T14:26:42.079Z,25.77
2018-07-13T14:27:51.776Z,25.72
2018-07-13T14:29:01.708Z,25.73
2018-07-13T14:30:11.650Z,25.79
2018-07-13T14:31:21.330Z,25.8
2018-07-13T14:32:30.245Z,25.82
2018-07-13T14:33:39.912Z,25.79
2018-07-13T14:34:49.097Z,25.8
2018-07-13T14:35:58.245Z,25.85
2018-07-13T14:37:07.949Z,25.87
2018-07-13T14:38:17.368Z,25.82
2018-07-13T14:39:26.786Z,25.8
2018-07-13T14:40:35.961Z,25.82
2018-07-13T14:41:45.145Z,25.83
2018-07-13T14:42:54.819Z,25.79
2018-07-13T14:44:04.245Z,25.82
2018-07-13T14:45:13.653Z,25.8
2018-07-13T14:46:23.075Z,25.83
2018-07-13T14:47:32.753Z,25.87
2018-07-13T14:48:42.414Z,25.83
2018-07-13T14:49:52.336Z,25.88
2018-07-13T14:51:02.274Z,25.9
2018-07-13T14:52:11.703Z,25.92
2018-07-13T14:53:20.935Z,25.91
2018-07-13T14:54:30.986Z,25.91
2018-07-13T14:55:40.417Z,25.9
2018-07-13T14:56:49.570Z,25.85
2018-07-13T14:57:59.521Z,25.82
2018-07-13T14:59:08.933Z,25.9
2018-07-13T15:00:18.619Z,25.92